createdAt,value
2019-04-04T00:26:43.199Z,69.85
2019-04-04T00:26:43.769Z,69.75
2019-04-04T00:26:44.370Z,69.75
2019-04-04T00:26:44.968Z,69.85
2019-04-04T00:26:45.567Z,70.04
2019-04-04T00:26:46.167Z,69.94
2019-04-04T00:26:46.767Z,69.37
2019-04-04T00:26:47.367Z,70.04
2019-04-04T00:27:43.674Z,70.04
2019-04-04T00:27:43.692Z,69.85
2019-04-04T00:27:43.939Z,69.94
2019-04-04T00:27:43.998Z,69.85
2019-04-04T00:27:44.008Z,69.94
2019-04-04T00:27:44.512Z,70.04
2019-04-04T00:27:44.631Z,70.04
2019-04-04T00:27:45.033Z,70.04
2019-04-04T00:28:38.482Z,69.94
2019-04-04T00:28:39.079Z,69.94
2019-04-04T00:28:39.675Z,69.66
2019-04-04T00:28:40.324Z,69.94
2019-04-04T00:28:40.875Z,69.94
2019-04-04T00:28:41.473Z,69.94
2019-04-04T00:28:42.072Z,70.04
2019-04-04T00:28:44.100Z,69.94
2019-04-04T00:29:36.153Z,70.13
2019-04-04T00:29:36.726Z,70.13
2019-04-04T00:29:37.328Z,70.04
2019-04-04T00:29:37.926Z,70.04
2019-04-04T00:29:38.525Z,70.04
2019-04-04T00:29:39.125Z,70.04
2019-04-04T00:29:39.725Z,70.04
2019-04-04T00:29:40.327Z,70.23
2019-04-04T00:30:34.806Z,70.04
2019-04-04T00:30:35.401Z,70.04
2019-04-04T00:30:36.003Z,70.04
2019-04-04T00:30:36.603Z,70.23
2019-04-04T00:30:37.200Z,70.13
2019-04-04T00:30:37.801Z,70.04
2019-04-04T00:30:38.400Z,70.04
2019-04-04T00:30:39.006Z,70.04
2019-04-04T00:31:33.480Z,70.13
2019-04-04T00:31:34.078Z,70.04
2019-04-04T00:31:34.679Z,70.23
2019-04-04T00:31:35.284Z,70.13
2019-04-04T00:31:35.877Z,70.04
2019-04-04T00:31:36.477Z,69.56
2019-04-04T00:31:37.076Z,70.23
2019-04-04T00:31:37.676Z,69.75
2019-04-04T00:32:32.155Z,70.13
2019-04-04T00:32:32.753Z,70.13
2019-04-04T00:32:33.352Z,70.23
2019-04-04T00:32:33.966Z,69.66
2019-04-04T00:32:34.551Z,70.13
2019-04-04T00:32:35.154Z,69.94
2019-04-04T00:32:35.752Z,70.13
2019-04-04T00:32:36.354Z,69.66
2019-04-04T00:33:30.833Z,70.23
2019-04-04T00:33:31.430Z,70.23
2019-04-04T00:33:32.036Z,70.23
2019-04-04T00:33:32.630Z,70.32
2019-04-04T00:33:33.232Z,70.13
2019-04-04T00:33:33.860Z,69.94
2019-04-04T00:33:34.428Z,70.23
2019-04-04T00:33:35.031Z,70.23
2019-04-04T00:34:29.534Z,69.94
2019-04-04T00:34:30.109Z,70.32
2019-04-04T00:34:30.706Z,70.32
2019-04-04T00:34:31.305Z,70.32
2019-04-04T00:34:31.905Z,70.23
2019-04-04T00:34:32.505Z,69.85
2019-04-04T00:34:33.111Z,70.23
2019-04-04T00:34:33.709Z,70.04
2019-04-04T00:35:27.161Z,69.85
2019-04-04T00:35:29.050Z,69.75
2019-04-04T00:35:29.104Z,70.23
2019-04-04T00:35:30.707Z,70.04
2019-04-04T00:35:31.062Z,70.04
2019-04-04T00:35:31.077Z,70.04
2019-04-04T00:35:31.156Z,70.23
2019-04-04T00:35:31.746Z,70.32
2019-04-04T00:36:24.819Z,70.13
2019-04-04T00:36:25.410Z,69.46
2019-04-04T00:36:26.010Z,70.04
2019-04-04T00:36:26.609Z,70.13
2019-04-04T00:36:27.210Z,70.13
2019-04-04T00:36:27.813Z,70.13
2019-04-04T00:36:28.410Z,70.04
2019-04-04T00:36:29.010Z,69.85
2019-04-04T00:37:22.466Z,70.04
2019-04-04T00:37:23.061Z,69.94
2019-04-04T00:37:23.661Z,69.94
2019-04-04T00:37:24.262Z,69.94
2019-04-04T00:37:24.862Z,69.94
2019-04-04T00:37:25.462Z,70.23
2019-04-04T00:37:26.060Z,70.04
2019-04-04T00:37:26.661Z,70.23
2019-04-04T00:38:20.117Z,70.13
2019-04-04T00:38:20.714Z,69.85
2019-04-04T00:38:21.316Z,70.04
2019-04-04T00:38:21.917Z,70.04
2019-04-04T00:38:22.515Z,70.13
2019-04-04T00:38:23.119Z,70.51
2019-04-04T00:38:23.714Z,69.75
2019-04-04T00:38:24.327Z,70.13
2019-04-04T00:39:17.794Z,69.75
2019-04-04T00:39:18.367Z,69.66
2019-04-04T00:39:18.966Z,69.75
2019-04-04T00:39:19.566Z,69.66
2019-04-04T00:39:20.168Z,69.66
2019-04-04T00:39:20.765Z,70.04
2019-04-04T00:39:21.364Z,69.85
2019-04-04T00:39:21.965Z,69.66
2019-04-04T00:40:15.420Z,69.75
2019-04-04T00:40:16.037Z,69.66
2019-04-04T00:40:16.618Z,69.85
2019-04-04T00:40:17.218Z,69.75
2019-04-04T00:40:17.819Z,69.75
2019-04-04T00:40:18.417Z,69.94
2019-04-04T00:40:19.016Z,69.94
2019-04-04T00:40:19.617Z,69.94
2019-04-04T00:41:13.601Z,69.75
2019-04-04T00:41:13.667Z,68.90
2019-04-04T00:41:14.268Z,69.56
2019-04-04T00:41:14.868Z,69.85
2019-04-04T00:41:15.467Z,69.75
2019-04-04T00:41:16.068Z,69.94
2019-04-04T00:41:16.667Z,69.75
2019-04-04T00:41:17.266Z,69.85
2019-04-04T00:42:10.726Z,69.66
2019-04-04T00:42:11.328Z,69.18
2019-04-04T00:42:11.922Z,69.18
2019-04-04T00:42:12.521Z,69.09
2019-04-04T00:42:13.122Z,69.37
2019-04-04T00:42:15.068Z,69.37
2019-04-04T00:42:16.716Z,69.09
2019-04-04T00:42:16.759Z,69.09
2019-04-04T00:43:09.406Z,69.37
2019-04-04T00:43:09.997Z,69.46
2019-04-04T00:43:10.598Z,69.27
2019-04-04T00:43:11.196Z,69.27
2019-04-04T00:43:11.800Z,69.27
2019-04-04T00:43:12.396Z,69.27
2019-04-04T00:43:12.995Z,69.27
2019-04-04T00:43:13.595Z,69.18
2019-04-04T00:44:07.077Z,69.18
2019-04-04T00:44:07.648Z,69.37
2019-04-04T00:44:08.248Z,69.09
2019-04-04T00:44:08.849Z,69.27
2019-04-04T00:44:09.448Z,69.27
2019-04-04T00:44:10.047Z,69.46
2019-04-04T00:44:10.648Z,69.09
2019-04-04T00:44:11.247Z,69.09
2019-04-04T00:45:04.703Z,69.27
2019-04-04T00:45:05.303Z,69.46
2019-04-04T00:45:05.907Z,69.18
2019-04-04T00:45:06.502Z,69.46
2019-04-04T00:45:07.100Z,69.18
2019-04-04T00:45:07.716Z,69.75
2019-04-04T00:45:08.300Z,69.46
2019-04-04T00:45:08.900Z,69.27
2019-04-04T00:46:03.378Z,68.80
2019-04-04T00:46:03.975Z,69.18
2019-04-04T00:46:04.575Z,69.18
2019-04-04T00:46:05.175Z,69.18
2019-04-04T00:46:05.786Z,69.09
2019-04-04T00:46:06.374Z,68.61
2019-04-04T00:46:06.977Z,69.18
2019-04-04T00:46:07.576Z,69.27
2019-04-04T00:47:02.245Z,68.52
2019-04-04T00:47:02.650Z,68.80
2019-04-04T00:47:03.251Z,68.61
2019-04-04T00:47:03.852Z,68.71
2019-04-04T00:47:04.454Z,68.80
2019-04-04T00:47:05.055Z,68.61
2019-04-04T00:47:05.650Z,68.61
2019-04-04T00:47:06.255Z,68.80
2019-04-04T00:48:01.098Z,68.80
2019-04-04T00:48:01.105Z,68.61
2019-04-04T00:48:01.118Z,68.80
2019-04-04T00:48:03.070Z,68.61
2019-04-04T00:48:03.074Z,68.80
2019-04-04T00:48:03.157Z,68.71
2019-04-04T00:48:03.687Z,68.80
2019-04-04T00:48:03.926Z,68.52
2019-04-04T00:48:57.360Z,68.71
2019-04-04T00:48:57.955Z,68.61
2019-04-04T00:48:58.556Z,68.52
2019-04-04T00:48:59.156Z,68.80
2019-04-04T00:48:59.757Z,68.61
2019-04-04T00:49:00.356Z,68.61
2019-04-04T00:49:00.957Z,68.71
2019-04-04T00:49:04.580Z,68.61
2019-04-04T00:49:56.061Z,68.52
2019-04-04T00:49:56.630Z,68.52
2019-04-04T00:49:57.232Z,68.65
2019-04-04T00:49:57.832Z,68.61
2019-04-04T00:49:58.430Z,68.42
2019-04-04T00:49:59.032Z,68.52
2019-04-04T00:49:59.630Z,68.61
2019-04-04T00:50:00.233Z,68.52
2019-04-04T00:50:53.686Z,68.71
2019-04-04T00:50:54.282Z,68.74
2019-04-04T00:50:54.914Z,68.65
2019-04-04T00:50:55.485Z,68.61
2019-04-04T00:50:56.082Z,68.23
2019-04-04T00:50:56.682Z,68.23
2019-04-04T00:50:57.280Z,68.33
2019-04-04T00:50:57.882Z,68.23
2019-04-04T00:51:51.339Z,68.17
2019-04-04T00:51:51.935Z,68.23
2019-04-04T00:51:52.535Z,68.07
2019-04-04T00:51:53.134Z,68.27
2019-04-04T00:51:53.735Z,68.27
2019-04-04T00:51:54.336Z,68.36
2019-04-04T00:51:54.934Z,68.17
2019-04-04T00:51:55.534Z,68.17
2019-04-04T00:52:48.990Z,68.36
2019-04-04T00:52:49.585Z,68.17
2019-04-04T00:52:50.187Z,68.46
2019-04-04T00:52:50.801Z,68.33
2019-04-04T00:52:51.386Z,68.17
2019-04-04T00:52:51.987Z,68.36
2019-04-04T00:52:52.588Z,68.36
2019-04-04T00:52:53.187Z,68.27
2019-04-04T00:53:46.643Z,68.65
2019-04-04T00:53:47.239Z,68.36
2019-04-04T00:53:47.838Z,68.55
2019-04-04T00:53:48.440Z,68.36
2019-04-04T00:53:49.036Z,68.17
2019-04-04T00:53:49.639Z,68.65
2019-04-04T00:53:50.242Z,68.55
2019-04-04T00:53:50.909Z,68.36
2019-04-04T00:54:44.996Z,68.65
2019-04-04T00:54:45.467Z,68.65
2019-04-04T00:54:45.527Z,68.55
2019-04-04T00:54:46.089Z,68.46
2019-04-04T00:54:46.690Z,68.55
2019-04-04T00:54:47.291Z,68.46
2019-04-04T00:54:47.892Z,68.55
2019-04-04T00:54:48.487Z,68.55
2019-04-04T00:55:41.946Z,68.46
2019-04-04T00:55:42.541Z,68.55
2019-04-04T00:55:43.142Z,67.79
2019-04-04T00:55:45.065Z,68.46
2019-04-04T00:55:45.092Z,68.46
2019-04-04T00:55:45.111Z,67.79
2019-04-04T00:55:46.938Z,68.65
2019-04-04T00:55:46.952Z,68.46
2019-04-04T00:56:40.640Z,68.07
2019-04-04T00:56:41.213Z,68.46
2019-04-04T00:56:41.820Z,68.46
2019-04-04T00:56:42.415Z,68.55
2019-04-04T00:56:43.013Z,68.55
2019-04-04T00:56:43.612Z,68.46
2019-04-04T00:56:44.213Z,68.36
2019-04-04T00:56:44.812Z,68.65
2019-04-04T00:57:38.266Z,68.46
2019-04-04T00:57:38.865Z,67.88
2019-04-04T00:57:39.464Z,67.88
2019-04-04T00:57:40.064Z,67.88
2019-04-04T00:57:40.663Z,68.36
2019-04-04T00:57:41.264Z,67.88
2019-04-04T00:57:41.864Z,67.88
2019-04-04T00:57:42.465Z,67.79
2019-04-04T00:58:36.943Z,67.88
2019-04-04T00:58:37.539Z,67.88
2019-04-04T00:58:38.139Z,67.88
2019-04-04T00:58:38.740Z,67.88
2019-04-04T00:58:39.342Z,67.50
2019-04-04T00:58:39.940Z,67.32
2019-04-04T00:58:40.543Z,67.88
2019-04-04T00:58:41.139Z,67.98
2019-04-04T00:59:34.620Z,67.50
2019-04-04T00:59:35.193Z,67.50
2019-04-04T00:59:35.792Z,67.50
2019-04-04T00:59:36.392Z,67.60
2019-04-04T00:59:36.995Z,67.60
2019-04-04T00:59:37.592Z,67.60
2019-04-04T00:59:38.193Z,67.50
2019-04-04T00:59:38.791Z,67.50
2019-04-04T01:00:33.271Z,67.69
2019-04-04T01:00:33.867Z,67.60
2019-04-04T01:00:34.467Z,67.60
2019-04-04T01:00:35.067Z,67.60
2019-04-04T01:00:35.666Z,67.60
2019-04-04T01:00:36.269Z,67.50
2019-04-04T01:00:36.866Z,67.50
2019-04-04T01:00:37.467Z,67.50
2019-04-04T01:01:31.947Z,67.98
2019-04-04T01:01:32.544Z,67.50
2019-04-04T01:01:33.144Z,67.79
2019-04-04T01:01:33.743Z,67.98
2019-04-04T01:01:34.342Z,67.60
2019-04-04T01:01:34.943Z,67.60
2019-04-04T01:01:35.545Z,67.98
2019-04-04T01:01:36.145Z,67.98
2019-04-04T01:02:30.623Z,67.60
2019-04-04T01:02:31.221Z,67.60
2019-04-04T01:02:31.818Z,67.50
2019-04-04T01:02:32.418Z,67.50
2019-04-04T01:02:33.017Z,67.50
2019-04-04T01:02:33.617Z,67.60
2019-04-04T01:02:34.218Z,67.69
2019-04-04T01:02:34.817Z,67.50
2019-04-04T01:03:30.051Z,67.79
2019-04-04T01:03:30.059Z,67.69
2019-04-04T01:03:30.151Z,67.88
2019-04-04T01:03:30.682Z,67.69
2019-04-04T01:03:30.816Z,67.69
2019-04-04T01:03:31.270Z,67.69
2019-04-04T01:03:31.871Z,67.88
2019-04-04T01:03:32.471Z,67.79
2019-04-04T01:04:25.951Z,67.88
2019-04-04T01:04:26.522Z,67.88
2019-04-04T01:04:27.124Z,67.88
2019-04-04T01:04:30.806Z,67.88
2019-04-04T01:04:30.842Z,67.88
2019-04-04T01:04:30.947Z,67.88
2019-04-04T01:04:31.133Z,67.88
2019-04-04T01:04:31.198Z,67.88
2019-04-04T01:05:26.650Z,67.88
2019-04-04T01:05:27.245Z,67.88
2019-04-04T01:05:27.847Z,67.88
2019-04-04T01:06:22.866Z,67.88
2019-04-04T01:06:23.464Z,67.98
2019-04-04T01:06:24.064Z,68.07
2019-04-04T01:06:24.665Z,67.98
2019-04-04T01:06:25.264Z,68.07
2019-04-04T01:06:25.863Z,68.07
2019-04-04T01:07:20.315Z,67.88
2019-04-04T01:07:20.910Z,67.88
2019-04-04T01:07:21.509Z,67.98
2019-04-04T01:07:22.109Z,67.88
2019-04-04T01:07:22.709Z,67.98
2019-04-04T01:07:23.311Z,67.88
2019-04-04T01:07:23.909Z,67.98
2019-04-04T01:08:33.532Z,67.69
2019-04-04T01:08:34.129Z,67.88
2019-04-04T01:08:37.903Z,67.69
2019-04-04T01:08:38.022Z,67.69
2019-04-04T01:08:38.026Z,67.69
2019-04-04T01:08:38.840Z,67.88
2019-04-04T01:08:38.847Z,67.69
2019-04-04T01:08:38.874Z,67.69
2019-04-04T01:08:39.023Z,67.69
2019-04-04T01:08:39.111Z,67.69
2019-04-04T01:08:39.528Z,67.88
2019-04-04T01:08:40.127Z,67.69
2019-04-04T01:08:40.730Z,67.69
2019-04-04T01:08:41.327Z,67.69
2019-04-04T01:08:41.925Z,67.88
2019-04-04T01:08:42.536Z,67.69
2019-04-04T01:09:37.042Z,67.60
2019-04-04T01:09:37.617Z,67.69
2019-04-04T01:09:38.217Z,67.50
2019-04-04T01:09:38.817Z,67.88
2019-04-04T01:09:39.416Z,67.50
2019-04-04T01:09:40.016Z,67.50
2019-04-04T01:09:40.613Z,67.50
2019-04-04T01:09:41.221Z,67.88
2019-04-04T01:10:34.673Z,67.50
2019-04-04T01:10:35.271Z,67.60
2019-04-04T01:10:35.874Z,67.50
2019-04-04T01:10:36.469Z,67.50
2019-04-04T01:10:37.068Z,67.50
2019-04-04T01:10:37.668Z,67.32
2019-04-04T01:10:38.267Z,67.50
2019-04-04T01:10:38.868Z,67.50
2019-04-04T01:11:32.323Z,67.98
2019-04-04T01:11:32.920Z,67.98
2019-04-04T01:11:33.541Z,67.88
2019-04-04T01:11:34.122Z,67.88
2019-04-04T01:11:34.719Z,68.55
2019-04-04T01:11:35.319Z,68.07
2019-04-04T01:11:35.919Z,67.79
2019-04-04T01:11:36.521Z,67.88
2019-04-04T01:12:29.976Z,67.98
2019-04-04T01:12:30.574Z,67.98
2019-04-04T01:12:31.174Z,68.07
2019-04-04T01:12:31.773Z,68.07
2019-04-04T01:12:32.372Z,68.07
2019-04-04T01:12:32.974Z,67.98
2019-04-04T01:12:33.572Z,67.98
2019-04-04T01:12:34.171Z,68.17
2019-04-04T01:13:28.649Z,68.36
2019-04-04T01:13:29.253Z,68.46
2019-04-04T01:13:29.847Z,68.46
2019-04-04T01:13:30.448Z,68.46
2019-04-04T01:13:31.046Z,68.36
2019-04-04T01:13:31.645Z,68.17
2019-04-04T01:13:32.245Z,68.46
2019-04-04T01:13:32.846Z,68.07
2019-04-04T01:14:29.186Z,68.36
2019-04-04T01:14:29.200Z,68.27
2019-04-04T01:14:29.271Z,68.65
2019-04-04T01:14:29.848Z,68.27
2019-04-04T01:14:29.983Z,68.36
2019-04-04T01:14:30.320Z,68.17
2019-04-04T01:14:30.921Z,68.36
2019-04-04T01:14:31.521Z,68.46
2019-04-04T01:15:24.979Z,68.36
2019-04-04T01:15:25.576Z,68.46
2019-04-04T01:15:26.175Z,68.55
2019-04-04T01:15:26.777Z,68.55
2019-04-04T01:15:29.012Z,68.55
2019-04-04T01:15:29.018Z,68.65
2019-04-04T01:15:29.035Z,68.46
2019-04-04T01:15:31.195Z,68.36
2019-04-04T01:16:22.630Z,68.65
2019-04-04T01:16:23.228Z,68.74
2019-04-04T01:16:23.826Z,68.84
2019-04-04T01:16:24.428Z,68.84
2019-04-04T01:16:25.027Z,68.84
2019-04-04T01:16:25.628Z,68.84
2019-04-04T01:16:26.224Z,68.84
2019-04-04T01:16:26.825Z,68.84
2019-04-04T01:17:21.305Z,68.65
2019-04-04T01:17:21.901Z,68.46
2019-04-04T01:17:22.500Z,68.65
2019-04-04T01:17:23.102Z,68.74
2019-04-04T01:17:23.701Z,68.65
2019-04-04T01:17:24.302Z,68.65
2019-04-04T01:17:24.902Z,68.65
2019-04-04T01:17:25.501Z,68.74
2019-04-04T01:18:19.989Z,69.31
2019-04-04T01:18:20.579Z,69.21
2019-04-04T01:18:21.179Z,69.21
2019-04-04T01:18:21.779Z,69.21
2019-04-04T01:18:22.379Z,69.41
2019-04-04T01:18:22.979Z,69.21
2019-04-04T01:18:23.577Z,69.02
2019-04-04T01:18:24.180Z,69.50
2019-04-04T01:19:17.655Z,69.31
2019-04-04T01:19:18.239Z,69.31
2019-04-04T01:19:18.829Z,69.31
2019-04-04T01:19:19.430Z,69.12
2019-04-04T01:19:20.033Z,69.31
2019-04-04T01:19:20.629Z,69.31
2019-04-04T01:19:21.230Z,69.35
2019-04-04T01:19:21.833Z,69.31
2019-04-04T01:20:15.285Z,69.21
2019-04-04T01:20:15.882Z,68.93
2019-04-04T01:20:18.116Z,69.21
2019-04-04T01:20:20.039Z,69.21
2019-04-04T01:20:20.048Z,69.21
2019-04-04T01:20:20.312Z,69.21
2019-04-04T01:20:20.327Z,69.21
2019-04-04T01:20:20.405Z,69.44
2019-04-04T01:21:13.960Z,69.73
2019-04-04T01:21:14.559Z,69.60
2019-04-04T01:21:15.163Z,69.79
2019-04-04T01:21:15.757Z,69.60
2019-04-04T01:21:16.359Z,69.92
2019-04-04T01:21:16.956Z,69.60
2019-04-04T01:21:17.556Z,69.79
2019-04-04T01:21:18.159Z,69.60
2019-04-04T01:22:11.613Z,70.07
2019-04-04T01:22:12.210Z,69.98
2019-04-04T01:22:12.809Z,69.69
2019-04-04T01:22:13.417Z,69.88
2019-04-04T01:22:14.010Z,69.79
2019-04-04T01:22:14.611Z,69.92
2019-04-04T01:22:15.209Z,69.79
2019-04-04T01:22:15.809Z,69.88
2019-04-04T01:23:10.286Z,69.98
2019-04-04T01:23:10.885Z,69.98
2019-04-04T01:23:11.488Z,69.69
2019-04-04T01:23:12.085Z,70.07
2019-04-04T01:23:12.684Z,70.26
2019-04-04T01:23:13.285Z,69.60
2019-04-04T01:23:13.885Z,70.07
2019-04-04T01:23:14.484Z,70.17
2019-04-04T01:24:08.994Z,69.88
2019-04-04T01:24:09.569Z,69.88
2019-04-04T01:24:10.162Z,70.26
2019-04-04T01:24:10.762Z,70.54
2019-04-04T01:24:11.360Z,70.58
2019-04-04T01:24:11.963Z,70.54
2019-04-04T01:24:12.560Z,70.36
2019-04-04T01:24:13.160Z,70.45
2019-04-04T01:25:06.615Z,71.59
2019-04-04T01:25:07.213Z,71.41
2019-04-04T01:25:07.812Z,71.50
2019-04-04T01:25:08.424Z,71.12
2019-04-04T01:25:09.013Z,71.59
2019-04-04T01:25:09.612Z,71.12
2019-04-04T01:25:10.212Z,71.41
2019-04-04T01:25:10.811Z,71.22
2019-04-04T01:26:04.268Z,71.59
2019-04-04T01:26:04.870Z,71.59
2019-04-04T01:26:05.489Z,71.69
2019-04-04T01:26:06.076Z,71.88
2019-04-04T01:26:06.663Z,71.50
2019-04-04T01:26:07.263Z,71.69
2019-04-04T01:26:07.863Z,71.78
2019-04-04T01:26:08.469Z,71.50
2019-04-04T01:27:04.176Z,72.74
2019-04-04T01:27:04.180Z,72.83
2019-04-04T01:27:06.173Z,72.55
2019-04-04T01:27:06.303Z,72.83
2019-04-04T01:27:06.315Z,72.55
2019-04-04T01:27:06.324Z,72.55
2019-04-04T01:27:06.961Z,72.55
2019-04-04T01:27:07.139Z,72.55
2019-04-04T01:28:00.593Z,72.83
2019-04-04T01:28:01.192Z,72.83
2019-04-04T01:28:01.791Z,72.83
2019-04-04T01:28:02.393Z,72.83
2019-04-04T01:28:02.993Z,72.83
2019-04-04T01:28:03.593Z,72.83
2019-04-04T01:28:04.265Z,73.02
2019-04-04T01:28:07.793Z,72.83
2019-04-04T01:28:58.249Z,73.59
2019-04-04T01:28:58.843Z,73.40
2019-04-04T01:28:59.447Z,73.59
2019-04-04T01:29:00.043Z,73.59
2019-04-04T01:29:00.644Z,73.34
2019-04-04T01:29:01.243Z,73.21
2019-04-04T01:29:01.843Z,73.49
2019-04-04T01:29:02.446Z,72.83
2019-04-04T01:29:55.921Z,73.49
2019-04-04T01:29:56.496Z,73.59
2019-04-04T01:29:57.097Z,73.59
2019-04-04T01:29:57.697Z,73.40
2019-04-04T01:29:58.295Z,73.40
2019-04-04T01:29:58.895Z,73.59
2019-04-04T01:29:59.500Z,73.40
2019-04-04T01:30:00.094Z,73.40
2019-04-04T01:30:54.574Z,73.88
2019-04-04T01:30:55.171Z,73.88
2019-04-04T01:30:55.771Z,73.88
2019-04-04T01:30:56.370Z,73.97
2019-04-04T01:30:56.970Z,73.88
2019-04-04T01:30:57.570Z,73.88
2019-04-04T01:30:58.170Z,73.69
2019-04-04T01:30:58.769Z,73.88
2019-04-04T01:31:52.226Z,73.69
2019-04-04T01:31:52.825Z,74.16
2019-04-04T01:31:53.423Z,73.69
2019-04-04T01:31:54.022Z,73.78
2019-04-04T01:31:54.623Z,73.59
2019-04-04T01:31:55.223Z,73.59
2019-04-04T01:31:55.822Z,73.69
2019-04-04T01:31:56.422Z,73.59
2019-04-04T01:32:49.878Z,73.59
2019-04-04T01:32:50.476Z,73.78
2019-04-04T01:32:51.076Z,73.63
2019-04-04T01:32:51.676Z,73.78
2019-04-04T01:32:52.274Z,73.78
2019-04-04T01:32:52.872Z,74.07
2019-04-04T01:32:53.475Z,73.69
2019-04-04T01:32:54.074Z,73.78
2019-04-04T01:33:50.897Z,74.07
2019-04-04T01:33:51.586Z,74.20
2019-04-04T01:33:51.588Z,74.07
2019-04-04T01:33:51.654Z,74.20
2019-04-04T01:33:51.718Z,73.97
2019-04-04T01:33:51.792Z,74.07
2019-04-04T01:33:52.148Z,74.16
2019-04-04T01:33:52.748Z,74.26
2019-04-04T01:34:47.259Z,74.35
2019-04-04T01:34:47.826Z,74.26
2019-04-04T01:34:50.024Z,74.35
2019-04-04T01:34:50.027Z,74.26
2019-04-04T01:34:50.054Z,74.29
2019-04-04T01:34:52.065Z,74.26
2019-04-04T01:34:52.145Z,74.20
2019-04-04T01:34:52.174Z,74.16
2019-04-04T01:35:44.881Z,74.73
2019-04-04T01:35:45.478Z,74.73
2019-04-04T01:35:46.079Z,74.73
2019-04-04T01:35:46.679Z,74.73
2019-04-04T01:35:47.276Z,74.92
2019-04-04T01:35:47.877Z,74.73
2019-04-04T01:35:48.478Z,74.82
2019-04-04T01:35:49.079Z,74.73
2019-04-04T01:36:42.532Z,75.59
2019-04-04T01:36:43.129Z,75.30
2019-04-04T01:36:43.729Z,75.68
2019-04-04T01:36:44.329Z,75.11
2019-04-04T01:36:44.930Z,75.30
2019-04-04T01:36:45.531Z,75.30
2019-04-04T01:36:46.128Z,75.30
2019-04-04T01:36:46.727Z,75.59
2019-04-04T01:37:41.207Z,75.11
2019-04-04T01:37:41.804Z,75.11
2019-04-04T01:37:42.404Z,74.82
2019-04-04T01:37:43.006Z,75.21
2019-04-04T01:37:43.604Z,75.21
2019-04-04T01:37:44.203Z,75.21
2019-04-04T01:37:44.838Z,75.49
2019-04-04T01:37:45.404Z,75.40
2019-04-04T01:38:39.882Z,75.87
2019-04-04T01:38:40.542Z,75.87
2019-04-04T01:38:41.082Z,75.72
2019-04-04T01:38:41.681Z,75.68
2019-04-04T01:38:42.281Z,75.78
2019-04-04T01:38:42.882Z,75.40
2019-04-04T01:38:43.479Z,75.91
2019-04-04T01:38:44.078Z,75.87
2019-04-04T01:39:37.537Z,76.16
2019-04-04T01:39:38.132Z,75.68
2019-04-04T01:39:38.732Z,75.59
2019-04-04T01:39:39.331Z,76.25
2019-04-04T01:39:39.935Z,76.16
2019-04-04T01:39:40.532Z,76.16
2019-04-04T01:39:41.134Z,75.78
2019-04-04T01:39:41.732Z,75.78
2019-04-04T01:40:35.217Z,76.06
2019-04-04T01:40:35.805Z,76.25
2019-04-04T01:40:36.382Z,76.25
2019-04-04T01:40:36.982Z,76.16
2019-04-04T01:40:37.584Z,76.25
2019-04-04T01:40:38.182Z,76.06
2019-04-04T01:40:38.785Z,76.25
2019-04-04T01:40:39.383Z,76.06
2019-04-04T01:41:35.877Z,76.39
2019-04-04T01:41:35.981Z,76.35
2019-04-04T01:41:35.986Z,76.16
2019-04-04T01:41:36.228Z,76.44
2019-04-04T01:41:36.314Z,76.44
2019-04-04T01:41:36.419Z,76.16
2019-04-04T01:41:37.050Z,76.44
2019-04-04T01:41:37.130Z,76.35
2019-04-04T01:42:30.490Z,77.20
2019-04-04T01:42:31.087Z,77.30
2019-04-04T01:42:31.689Z,77.11
2019-04-04T01:42:32.291Z,76.82
2019-04-04T01:42:32.890Z,77.30
2019-04-04T01:42:33.488Z,77.30
2019-04-04T01:42:34.144Z,77.30
2019-04-04T01:42:37.890Z,77.30
2019-04-04T01:43:28.142Z,77.58
2019-04-04T01:43:28.741Z,77.58
2019-04-04T01:43:29.339Z,77.58
2019-04-04T01:43:29.943Z,77.68
2019-04-04T01:43:30.541Z,77.68
2019-04-04T01:43:31.139Z,77.58
2019-04-04T01:43:31.738Z,77.68
2019-04-04T01:43:32.339Z,77.72
2019-04-04T01:44:26.817Z,77.77
2019-04-04T01:44:27.414Z,77.77
2019-04-04T01:44:28.014Z,78.06
2019-04-04T01:44:28.613Z,77.87
2019-04-04T01:44:29.215Z,77.97
2019-04-04T01:44:29.814Z,78.06
2019-04-04T01:44:30.422Z,77.97
2019-04-04T01:44:31.013Z,78.06
2019-04-04T01:45:24.484Z,78.72
2019-04-04T01:45:25.068Z,78.63
2019-04-04T01:45:25.669Z,78.63
2019-04-04T01:45:26.266Z,78.63
2019-04-04T01:45:26.867Z,78.63
2019-04-04T01:45:27.466Z,78.53
2019-04-04T01:45:28.069Z,78.53
2019-04-04T01:45:28.665Z,78.63
2019-04-04T01:46:22.152Z,79.20
2019-04-04T01:46:22.723Z,79.11
2019-04-04T01:46:23.319Z,79.11
2019-04-04T01:46:23.919Z,79.30
2019-04-04T01:46:24.518Z,79.39
2019-04-04T01:46:25.120Z,79.58
2019-04-04T01:46:25.719Z,79.39
2019-04-04T01:46:26.318Z,79.58
2019-04-04T01:47:19.773Z,79.68
2019-04-04T01:47:20.370Z,79.68
2019-04-04T01:47:20.970Z,79.68
2019-04-04T01:47:21.572Z,79.49
2019-04-04T01:47:22.171Z,79.30
2019-04-04T01:47:22.769Z,79.39
2019-04-04T01:47:23.369Z,79.30
2019-04-04T01:47:23.971Z,79.30
2019-04-04T01:48:18.865Z,79.96
2019-04-04T01:48:18.893Z,80.15
2019-04-04T01:48:19.283Z,80.24
2019-04-04T01:48:19.375Z,79.96
2019-04-04T01:48:19.821Z,79.96
2019-04-04T01:48:20.419Z,80.15
2019-04-04T01:48:21.022Z,79.77
2019-04-04T01:48:21.625Z,79.86
2019-04-04T01:49:16.100Z,79.86
2019-04-04T01:49:16.695Z,79.86
2019-04-04T01:49:19.084Z,79.77
2019-04-04T01:49:19.133Z,79.77
2019-04-04T01:49:20.837Z,79.68
2019-04-04T01:49:21.106Z,79.86
2019-04-04T01:49:21.111Z,79.68
2019-04-04T01:49:21.197Z,79.77
2019-04-04T01:50:13.754Z,80.44
2019-04-04T01:50:14.349Z,80.24
2019-04-04T01:50:14.950Z,80.34
2019-04-04T01:50:15.549Z,80.24
2019-04-04T01:50:16.148Z,80.34
2019-04-04T01:50:16.748Z,80.63
2019-04-04T01:50:17.348Z,80.24
2019-04-04T01:50:17.948Z,80.24
2019-04-04T01:51:12.428Z,80.44
2019-04-04T01:51:13.025Z,80.44
2019-04-04T01:51:13.626Z,80.44
2019-04-04T01:51:14.230Z,80.63
2019-04-04T01:51:14.824Z,80.63
2019-04-04T01:51:15.422Z,80.44
2019-04-04T01:51:16.032Z,80.63
2019-04-04T01:51:16.623Z,80.63
2019-04-04T01:52:11.129Z,81.29
2019-04-04T01:52:11.701Z,81.20
2019-04-04T01:52:12.302Z,81.38
2019-04-04T01:52:12.900Z,80.91
2019-04-04T01:52:13.499Z,80.91
2019-04-04T01:52:14.099Z,80.91
2019-04-04T01:52:14.701Z,80.91
2019-04-04T01:52:15.300Z,80.91
2019-04-04T01:53:08.757Z,81.67
2019-04-04T01:53:09.355Z,81.77
2019-04-04T01:53:09.962Z,81.67
2019-04-04T01:53:10.551Z,81.86
2019-04-04T01:53:11.150Z,81.86
2019-04-04T01:53:11.751Z,81.67
2019-04-04T01:53:12.351Z,81.67
2019-04-04T01:53:12.950Z,81.86
2019-04-04T01:54:07.429Z,82.34
2019-04-04T01:54:08.027Z,82.34
2019-04-04T01:54:08.627Z,82.34
2019-04-04T01:54:09.229Z,82.34
2019-04-04T01:54:09.827Z,82.34
2019-04-04T01:54:10.429Z,81.77
2019-04-04T01:54:11.027Z,82.34
2019-04-04T01:54:11.625Z,82.34
2019-04-04T01:55:06.106Z,81.96
2019-04-04T01:55:06.706Z,82.05
2019-04-04T01:55:07.303Z,82.15
2019-04-04T01:55:07.903Z,82.15
2019-04-04T01:55:08.502Z,82.05
2019-04-04T01:55:09.105Z,82.15
2019-04-04T01:55:09.712Z,82.15
2019-04-04T01:55:10.302Z,82.15
2019-04-04T01:56:05.984Z,82.05
2019-04-04T01:56:06.708Z,82.05
2019-04-04T01:56:06.727Z,82.05
2019-04-04T01:56:06.741Z,81.58
2019-04-04T01:56:06.981Z,81.77
2019-04-04T01:56:07.030Z,82.05
2019-04-04T01:56:07.357Z,81.77
2019-04-04T01:56:07.953Z,82.05
2019-04-04T01:57:01.440Z,81.67
2019-04-04T01:57:02.020Z,81.48
2019-04-04T01:57:02.613Z,81.77
2019-04-04T01:57:03.206Z,81.48
2019-04-04T01:57:03.807Z,81.48
2019-04-04T01:57:07.697Z,81.58
2019-04-04T01:57:07.802Z,81.86
2019-04-04T01:57:07.809Z,81.48
2019-04-04T01:58:00.085Z,82.05
2019-04-04T01:58:00.682Z,82.15
2019-04-04T01:58:01.282Z,82.15
2019-04-04T01:58:01.883Z,82.05
2019-04-04T01:58:02.484Z,82.15
2019-04-04T01:58:03.108Z,81.96
2019-04-04T01:58:03.681Z,82.15
2019-04-04T01:58:04.282Z,82.15
2019-04-04T01:58:58.766Z,82.05
2019-04-04T01:58:59.359Z,82.05
2019-04-04T01:58:59.958Z,82.15
2019-04-04T01:59:00.557Z,82.05
2019-04-04T01:59:01.157Z,82.15
2019-04-04T01:59:01.759Z,82.15
2019-04-04T01:59:02.357Z,82.15
2019-04-04T01:59:03.005Z,82.05
2019-04-04T01:59:56.428Z,82.15
2019-04-04T01:59:57.017Z,82.24
2019-04-04T01:59:57.608Z,82.15
2019-04-04T01:59:58.210Z,82.15
2019-04-04T01:59:58.808Z,82.15